This is the latest recevied weather packets stored in our database for station/object CE4ERM-13. If no packets are shown the sender has not sent any weather packets the latest 10 day(s).
| Time | Temp. | Humidity | Pressure | Rain* | Wind** | Luminosity | Snow |
|---|---|---|---|---|---|---|---|
| 1778081966 | 23.89° C | 43% | 1018.8 hPa | - | - | - | - |
| 1778080949 | 20° C | 47% | 1018.6 hPa | - | - | - | - |
| 1778078964 | 23.89° C | 41% | 1018.5 hPa | - | - | - | - |
| 1778077763 | 24.44° C | 42% | 1018.1 hPa | - | - | - | - |
| 1778077735 | 19.44° C | 52% | 1020.7 hPa | - | - | - | - |
| 1778076562 | 23.89° C | 44% | 1017.1 hPa | - | - | - | - |
| 1778076534 | 19.44° C | 53% | 1016.4 hPa | - | - | - | - |
| 1778075962 | 23.89° C | 45% | 1017.6 hPa | - | - | - | - |
| 1778075362 | 23.89° C | 45% | 1019.2 hPa | - | - | - | - |
| 1778074607 | 18.89° C | 54% | 1018.3 hPa | - | - | - | - |
| 1778074007 | 18.33° C | 57% | 1018 hPa | - | - | - | - |
| 1778073561 | 21.11° C | 49% | 1019.3 hPa | - | - | - | - |
| 1778073407 | 18.33° C | 57% | 1019.7 hPa | - | - | - | - |
| 1778072807 | 17.78° C | 51% | 1022.4 hPa | - | - | - | - |
| 1778072207 | 17.78° C | 48% | 1018.2 hPa | - | - | - | - |
| 1778071760 | 21.11° C | 48% | 1018.7 hPa | - | - | - | - |
| 1778071607 | 17.78° C | 47% | 1021.6 hPa | - | - | - | - |
| 1778071006 | 17.78° C | 46% | 1023.2 hPa | - | - | - | - |
| 1778070406 | 17.78° C | 47% | 1022.6 hPa | - | - | - | - |
| 1778069806 | 17.22° C | 47% | 1021.5 hPa | - | - | - | - |
| 1778069357 | 19.44° C | 48% | 1018.1 hPa | - | - | - | - |
| 1778069206 | 17.78° C | 47% | 1021.8 hPa | - | - | - | - |
| 1778068757 | 18.89° C | 47% | 1017 hPa | - | - | - | - |
| 1778068605 | 17.78° C | 47% | 1012.4 hPa | - | - | - | - |
| 1778068157 | 18.33° C | 47% | 1016.3 hPa | - | - | - | - |
* Rain since midnight (hover to see other rain measurements)
** Current wind speed in m/s (hover to see current wind gust speed)